sensor_id;sensor_type;location;lat;lon;timestamp;P1;durP1;ratioP1;P2;durP2;ratioP2
73650;SDS011;61944;52.538;6.108;2023-03-13T00:01:18;26.17;;;7.15;;
73650;SDS011;61944;52.538;6.108;2023-03-13T00:03:55;20.83;;;6.30;;
73650;SDS011;61944;52.538;6.108;2023-03-13T00:06:21;24.85;;;6.55;;
73650;SDS011;61944;52.538;6.108;2023-03-13T00:08:48;32.70;;;7.13;;
73650;SDS011;61944;52.538;6.108;2023-03-13T00:11:13;32.67;;;7.75;;
73650;SDS011;61944;52.538;6.108;2023-03-13T00:13:39;23.60;;;5.53;;
73650;SDS011;61944;52.538;6.108;2023-03-13T00:16:10;29.15;;;7.35;;
73650;SDS011;61944;52.538;6.108;2023-03-13T00:18:36;30.88;;;6.55;;
73650;SDS011;61944;52.538;6.108;2023-03-13T00:21:06;20.05;;;5.88;;
73650;SDS011;61944;52.538;6.108;2023-03-13T00:23:33;31.30;;;6.85;;
73650;SDS011;61944;52.538;6.108;2023-03-13T00:26:08;25.90;;;6.10;;
73650;SDS011;61944;52.538;6.108;2023-03-13T00:28:35;23.20;;;5.97;;
73650;SDS011;61944;52.538;6.108;2023-03-13T00:31:06;30.00;;;6.97;;
73650;SDS011;61944;52.538;6.108;2023-03-13T00:33:40;24.48;;;7.25;;
73650;SDS011;61944;52.538;6.108;2023-03-13T00:36:08;37.70;;;5.93;;
73650;SDS011;61944;52.538;6.108;2023-03-13T00:38:37;26.85;;;6.55;;
73650;SDS011;61944;52.538;6.108;2023-03-13T00:41:10;25.17;;;6.40;;
73650;SDS011;61944;52.538;6.108;2023-03-13T00:43:40;39.03;;;9.13;;
73650;SDS011;61944;52.538;6.108;2023-03-13T00:46:07;33.75;;;6.95;;
73650;SDS011;61944;52.538;6.108;2023-03-13T00:48:33;39.28;;;7.18;;
73650;SDS011;61944;52.538;6.108;2023-03-13T00:50:58;30.02;;;8.07;;
73650;SDS011;61944;52.538;6.108;2023-03-13T00:53:24;33.88;;;7.05;;
73650;SDS011;61944;52.538;6.108;2023-03-13T00:56:00;36.88;;;8.18;;
73650;SDS011;61944;52.538;6.108;2023-03-13T00:58:28;30.08;;;7.07;;
73650;SDS011;61944;52.538;6.108;2023-03-13T01:00:55;48.17;;;7.80;;
73650;SDS011;61944;52.538;6.108;2023-03-13T01:03:22;24.20;;;6.50;;
73650;SDS011;61944;52.538;6.108;2023-03-13T01:05:55;28.25;;;6.30;;
73650;SDS011;61944;52.538;6.108;2023-03-13T01:08:22;36.63;;;7.03;;
73650;SDS011;61944;52.538;6.108;2023-03-13T01:10:48;25.60;;;6.40;;
73650;SDS011;61944;52.538;6.108;2023-03-13T01:13:13;28.63;;;6.28;;
73650;SDS011;61944;52.538;6.108;2023-03-13T01:15:38;39.15;;;7.07;;
73650;SDS011;61944;52.538;6.108;2023-03-13T01:18:04;20.75;;;6.18;;
73650;SDS011;61944;52.538;6.108;2023-03-13T01:20:29;32.45;;;7.65;;
73650;SDS011;61944;52.538;6.108;2023-03-13T01:22:55;28.33;;;7.53;;
73650;SDS011;61944;52.538;6.108;2023-03-13T01:25:20;34.38;;;9.13;;
73650;SDS011;61944;52.538;6.108;2023-03-13T01:27:45;30.00;;;8.52;;
73650;SDS011;61944;52.538;6.108;2023-03-13T01:30:11;22.70;;;6.00;;
73650;SDS011;61944;52.538;6.108;2023-03-13T01:32:36;28.02;;;7.55;;
73650;SDS011;61944;52.538;6.108;2023-03-13T01:35:02;48.30;;;10.55;;
73650;SDS011;61944;52.538;6.108;2023-03-13T01:37:27;35.97;;;8.23;;
73650;SDS011;61944;52.538;6.108;2023-03-13T01:39:53;41.67;;;7.88;;
73650;SDS011;61944;52.538;6.108;2023-03-13T01:42:18;38.22;;;8.52;;
73650;SDS011;61944;52.538;6.108;2023-03-13T01:44:50;23.70;;;7.68;;
73650;SDS011;61944;52.538;6.108;2023-03-13T01:47:18;25.27;;;8.20;;
73650;SDS011;61944;52.538;6.108;2023-03-13T01:49:43;28.52;;;7.95;;
73650;SDS011;61944;52.538;6.108;2023-03-13T01:52:21;27.98;;;6.10;;
73650;SDS011;61944;52.538;6.108;2023-03-13T02:00:03;28.17;;;7.45;;
73650;SDS011;61944;52.538;6.108;2023-03-13T02:02:31;26.60;;;7.30;;
73650;SDS011;61944;52.538;6.108;2023-03-13T02:04:59;18.77;;;6.65;;
73650;SDS011;61944;52.538;6.108;2023-03-13T02:07:28;25.00;;;6.50;;
73650;SDS011;61944;52.538;6.108;2023-03-13T02:09:57;28.38;;;7.95;;
73650;SDS011;61944;52.538;6.108;2023-03-13T02:12:28;22.10;;;7.65;;
73650;SDS011;61944;52.538;6.108;2023-03-13T02:14:57;29.27;;;6.82;;
73650;SDS011;61944;52.538;6.108;2023-03-13T02:17:24;17.92;;;6.60;;
73650;SDS011;61944;52.538;6.108;2023-03-13T02:19:51;23.60;;;6.72;;
73650;SDS011;61944;52.538;6.108;2023-03-13T02:27:46;18.08;;;7.57;;
73650;SDS011;61944;52.538;6.108;2023-03-13T02:30:12;22.70;;;6.78;;
73650;SDS011;61944;52.538;6.108;2023-03-13T02:32:39;16.27;;;6.93;;
73650;SDS011;61944;52.538;6.108;2023-03-13T02:35:07;16.52;;;6.43;;
73650;SDS011;61944;52.538;6.108;2023-03-13T02:37:34;16.92;;;5.75;;
73650;SDS011;61944;52.538;6.108;2023-03-13T02:40:02;22.65;;;7.13;;
73650;SDS011;61944;52.538;6.108;2023-03-13T02:42:32;14.45;;;4.40;;
73650;SDS011;61944;52.538;6.108;2023-03-13T02:44:57;18.92;;;6.18;;
73650;SDS011;61944;52.538;6.108;2023-03-13T02:47:23;11.70;;;4.45;;
73650;SDS011;61944;52.538;6.108;2023-03-13T02:49:49;14.93;;;5.07;;
73650;SDS011;61944;52.538;6.108;2023-03-13T02:52:31;12.25;;;5.13;;
73650;SDS011;61944;52.538;6.108;2023-03-13T02:55:07;11.27;;;5.03;;
73650;SDS011;61944;52.538;6.108;2023-03-13T02:57:42;18.77;;;5.10;;
73650;SDS011;61944;52.538;6.108;2023-03-13T03:00:08;10.35;;;4.78;;
73650;SDS011;61944;52.538;6.108;2023-03-13T03:02:36;13.65;;;4.88;;
73650;SDS011;61944;52.538;6.108;2023-03-13T03:05:04;9.48;;;4.95;;
73650;SDS011;61944;52.538;6.108;2023-03-13T03:07:30;7.80;;;4.57;;
73650;SDS011;61944;52.538;6.108;2023-03-13T03:09:55;10.52;;;4.57;;
73650;SDS011;61944;52.538;6.108;2023-03-13T03:12:20;10.30;;;5.75;;
73650;SDS011;61944;52.538;6.108;2023-03-13T03:14:46;11.43;;;5.60;;
73650;SDS011;61944;52.538;6.108;2023-03-13T03:17:11;7.63;;;3.95;;
73650;SDS011;61944;52.538;6.108;2023-03-13T03:19:37;11.77;;;5.20;;
73650;SDS011;61944;52.538;6.108;2023-03-13T03:22:02;11.48;;;4.90;;
73650;SDS011;61944;52.538;6.108;2023-03-13T03:24:28;12.02;;;4.10;;
73650;SDS011;61944;52.538;6.108;2023-03-13T03:26:53;6.38;;;4.00;;
73650;SDS011;61944;52.538;6.108;2023-03-13T03:29:18;7.80;;;4.28;;
73650;SDS011;61944;52.538;6.108;2023-03-13T03:31:44;6.18;;;4.00;;
73650;SDS011;61944;52.538;6.108;2023-03-13T03:34:09;11.43;;;5.10;;
73650;SDS011;61944;52.538;6.108;2023-03-13T03:36:35;9.30;;;4.25;;
73650;SDS011;61944;52.538;6.108;2023-03-13T03:39:00;9.93;;;4.78;;
73650;SDS011;61944;52.538;6.108;2023-03-13T03:41:25;11.35;;;5.40;;
73650;SDS011;61944;52.538;6.108;2023-03-13T03:43:51;9.02;;;4.82;;
73650;SDS011;61944;52.538;6.108;2023-03-13T03:46:16;8.95;;;4.97;;
73650;SDS011;61944;52.538;6.108;2023-03-13T03:48:42;10.25;;;4.50;;
73650;SDS011;61944;52.538;6.108;2023-03-13T03:51:07;10.27;;;4.65;;
73650;SDS011;61944;52.538;6.108;2023-03-13T03:53:33;9.43;;;5.15;;
73650;SDS011;61944;52.538;6.108;2023-03-13T03:55:58;7.47;;;4.82;;
73650;SDS011;61944;52.538;6.108;2023-03-13T03:58:25;11.52;;;5.72;;
73650;SDS011;61944;52.538;6.108;2023-03-13T04:00:51;12.82;;;5.28;;
73650;SDS011;61944;52.538;6.108;2023-03-13T04:03:16;9.85;;;5.70;;
73650;SDS011;61944;52.538;6.108;2023-03-13T04:05:42;13.43;;;6.20;;
73650;SDS011;61944;52.538;6.108;2023-03-13T04:08:08;8.05;;;5.55;;
73650;SDS011;61944;52.538;6.108;2023-03-13T04:10:34;14.32;;;6.85;;
73650;SDS011;61944;52.538;6.108;2023-03-13T04:12:59;16.60;;;7.13;;
73650;SDS011;61944;52.538;6.108;2023-03-13T04:15:25;12.65;;;8.10;;
73650;SDS011;61944;52.538;6.108;2023-03-13T04:17:50;13.20;;;6.85;;
73650;SDS011;61944;52.538;6.108;2023-03-13T04:20:16;13.05;;;7.13;;
73650;SDS011;61944;52.538;6.108;2023-03-13T04:22:41;18.98;;;9.18;;
73650;SDS011;61944;52.538;6.108;2023-03-13T04:25:07;17.08;;;8.25;;
73650;SDS011;61944;52.538;6.108;2023-03-13T04:27:33;20.08;;;8.23;;
73650;SDS011;61944;52.538;6.108;2023-03-13T04:29:59;18.70;;;9.18;;
73650;SDS011;61944;52.538;6.108;2023-03-13T04:32:25;18.50;;;9.90;;
73650;SDS011;61944;52.538;6.108;2023-03-13T04:34:50;17.17;;;7.78;;
73650;SDS011;61944;52.538;6.108;2023-03-13T04:37:16;17.15;;;9.68;;
73650;SDS011;61944;52.538;6.108;2023-03-13T04:39:41;20.15;;;9.52;;
73650;SDS011;61944;52.538;6.108;2023-03-13T04:42:08;19.58;;;8.85;;
73650;SDS011;61944;52.538;6.108;2023-03-13T04:44:34;16.95;;;9.90;;
73650;SDS011;61944;52.538;6.108;2023-03-13T04:47:00;18.50;;;9.00;;
73650;SDS011;61944;52.538;6.108;2023-03-13T04:49:25;18.15;;;9.13;;
73650;SDS011;61944;52.538;6.108;2023-03-13T04:51:51;28.48;;;11.35;;
73650;SDS011;61944;52.538;6.108;2023-03-13T04:54:16;24.17;;;10.70;;
73650;SDS011;61944;52.538;6.108;2023-03-13T04:56:41;20.10;;;9.63;;
73650;SDS011;61944;52.538;6.108;2023-03-13T04:59:07;15.73;;;8.10;;
73650;SDS011;61944;52.538;6.108;2023-03-13T05:01:33;23.92;;;9.43;;
73650;SDS011;61944;52.538;6.108;2023-03-13T05:03:59;18.92;;;8.93;;
73650;SDS011;61944;52.538;6.108;2023-03-13T05:06:24;19.23;;;8.77;;
73650;SDS011;61944;52.538;6.108;2023-03-13T05:08:50;16.85;;;9.02;;
73650;SDS011;61944;52.538;6.108;2023-03-13T05:11:15;19.45;;;10.00;;
73650;SDS011;61944;52.538;6.108;2023-03-13T05:13:41;18.52;;;9.38;;
73650;SDS011;61944;52.538;6.108;2023-03-13T05:16:06;17.30;;;9.25;;
73650;SDS011;61944;52.538;6.108;2023-03-13T05:18:31;17.92;;;9.38;;
73650;SDS011;61944;52.538;6.108;2023-03-13T05:20:57;17.60;;;8.20;;
73650;SDS011;61944;52.538;6.108;2023-03-13T05:23:23;15.43;;;8.13;;
73650;SDS011;61944;52.538;6.108;2023-03-13T05:25:48;15.07;;;8.52;;
73650;SDS011;61944;52.538;6.108;2023-03-13T05:28:13;20.08;;;8.35;;
73650;SDS011;61944;52.538;6.108;2023-03-13T05:30:39;23.38;;;9.85;;
73650;SDS011;61944;52.538;6.108;2023-03-13T05:33:04;16.40;;;8.60;;
73650;SDS011;61944;52.538;6.108;2023-03-13T05:35:29;18.15;;;9.40;;
73650;SDS011;61944;52.538;6.108;2023-03-13T05:37:55;18.65;;;9.80;;
73650;SDS011;61944;52.538;6.108;2023-03-13T05:40:20;15.68;;;8.43;;
73650;SDS011;61944;52.538;6.108;2023-03-13T05:42:46;14.88;;;8.10;;
73650;SDS011;61944;52.538;6.108;2023-03-13T05:45:11;14.70;;;8.90;;
73650;SDS011;61944;52.538;6.108;2023-03-13T05:47:37;16.50;;;8.15;;
73650;SDS011;61944;52.538;6.108;2023-03-13T05:50:04;23.70;;;9.60;;
73650;SDS011;61944;52.538;6.108;2023-03-13T05:52:30;19.58;;;9.20;;
73650;SDS011;61944;52.538;6.108;2023-03-13T05:54:56;16.70;;;8.60;;
73650;SDS011;61944;52.538;6.108;2023-03-13T05:57:22;15.73;;;8.23;;
73650;SDS011;61944;52.538;6.108;2023-03-13T05:59:47;15.57;;;8.63;;
73650;SDS011;61944;52.538;6.108;2023-03-13T06:02:13;17.40;;;9.63;;
73650;SDS011;61944;52.538;6.108;2023-03-13T06:04:38;19.17;;;7.70;;
73650;SDS011;61944;52.538;6.108;2023-03-13T06:07:03;17.13;;;6.72;;
73650;SDS011;61944;52.538;6.108;2023-03-13T06:09:29;19.77;;;7.28;;
73650;SDS011;61944;52.538;6.108;2023-03-13T06:11:54;12.80;;;7.32;;
73650;SDS011;61944;52.538;6.108;2023-03-13T06:14:20;22.95;;;6.30;;
73650;SDS011;61944;52.538;6.108;2023-03-13T06:16:45;14.98;;;6.70;;
73650;SDS011;61944;52.538;6.108;2023-03-13T06:19:11;19.75;;;6.03;;
73650;SDS011;61944;52.538;6.108;2023-03-13T06:21:36;11.77;;;6.38;;
73650;SDS011;61944;52.538;6.108;2023-03-13T06:24:02;17.27;;;6.57;;
73650;SDS011;61944;52.538;6.108;2023-03-13T06:26:28;20.08;;;6.72;;
73650;SDS011;61944;52.538;6.108;2023-03-13T06:28:53;15.55;;;6.25;;
73650;SDS011;61944;52.538;6.108;2023-03-13T06:31:19;20.70;;;5.75;;
73650;SDS011;61944;52.538;6.108;2023-03-13T06:33:44;13.52;;;6.10;;
73650;SDS011;61944;52.538;6.108;2023-03-13T06:36:10;14.63;;;6.82;;
73650;SDS011;61944;52.538;6.108;2023-03-13T06:38:35;13.20;;;6.72;;
73650;SDS011;61944;52.538;6.108;2023-03-13T06:41:00;11.18;;;6.13;;
73650;SDS011;61944;52.538;6.108;2023-03-13T06:43:26;10.05;;;5.63;;
73650;SDS011;61944;52.538;6.108;2023-03-13T06:45:51;22.85;;;5.68;;
73650;SDS011;61944;52.538;6.108;2023-03-13T06:48:17;9.00;;;4.90;;
73650;SDS011;61944;52.538;6.108;2023-03-13T06:50:43;17.48;;;6.05;;
73650;SDS011;61944;52.538;6.108;2023-03-13T06:53:16;12.13;;;5.10;;
73650;SDS011;61944;52.538;6.108;2023-03-13T06:55:45;12.18;;;4.97;;
73650;SDS011;61944;52.538;6.108;2023-03-13T06:58:11;14.20;;;5.63;;
73650;SDS011;61944;52.538;6.108;2023-03-13T07:00:36;25.90;;;5.45;;
73650;SDS011;61944;52.538;6.108;2023-03-13T07:03:04;12.57;;;4.45;;
73650;SDS011;61944;52.538;6.108;2023-03-13T07:05:29;12.30;;;4.25;;
73650;SDS011;61944;52.538;6.108;2023-03-13T07:07:55;13.48;;;3.67;;
73650;SDS011;61944;52.538;6.108;2023-03-13T07:10:20;14.70;;;4.22;;
73650;SDS011;61944;52.538;6.108;2023-03-13T07:12:45;13.00;;;4.95;;
73650;SDS011;61944;52.538;6.108;2023-03-13T07:15:11;14.23;;;4.72;;
73650;SDS011;61944;52.538;6.108;2023-03-13T07:17:36;13.93;;;4.60;;
73650;SDS011;61944;52.538;6.108;2023-03-13T07:20:02;13.40;;;4.03;;
73650;SDS011;61944;52.538;6.108;2023-03-13T07:25:00;13.32;;;4.47;;
73650;SDS011;61944;52.538;6.108;2023-03-13T07:27:25;10.63;;;4.43;;
73650;SDS011;61944;52.538;6.108;2023-03-13T07:29:50;10.07;;;4.05;;
73650;SDS011;61944;52.538;6.108;2023-03-13T07:32:16;13.18;;;3.65;;
73650;SDS011;61944;52.538;6.108;2023-03-13T07:34:41;8.77;;;3.67;;
73650;SDS011;61944;52.538;6.108;2023-03-13T07:37:09;8.43;;;4.60;;
73650;SDS011;61944;52.538;6.108;2023-03-13T07:39:39;10.63;;;4.32;;
73650;SDS011;61944;52.538;6.108;2023-03-13T07:42:04;14.48;;;4.70;;
73650;SDS011;61944;52.538;6.108;2023-03-13T07:44:31;8.85;;;3.97;;
73650;SDS011;61944;52.538;6.108;2023-03-13T07:47:00;9.35;;;4.20;;
73650;SDS011;61944;52.538;6.108;2023-03-13T07:49:25;9.32;;;3.63;;
73650;SDS011;61944;52.538;6.108;2023-03-13T07:51:51;9.73;;;4.63;;
73650;SDS011;61944;52.538;6.108;2023-03-13T07:54:16;13.23;;;3.67;;
73650;SDS011;61944;52.538;6.108;2023-03-13T07:56:42;7.28;;;3.95;;
73650;SDS011;61944;52.538;6.108;2023-03-13T07:59:07;7.97;;;3.92;;
73650;SDS011;61944;52.538;6.108;2023-03-13T08:01:33;10.70;;;4.45;;
73650;SDS011;61944;52.538;6.108;2023-03-13T08:03:58;7.32;;;4.00;;
73650;SDS011;61944;52.538;6.108;2023-03-13T08:06:28;8.20;;;3.80;;
73650;SDS011;61944;52.538;6.108;2023-03-13T08:08:56;6.97;;;3.45;;
73650;SDS011;61944;52.538;6.108;2023-03-13T08:11:23;11.13;;;3.53;;
73650;SDS011;61944;52.538;6.108;2023-03-13T08:13:50;11.80;;;4.15;;
73650;SDS011;61944;52.538;6.108;2023-03-13T08:16:17;9.65;;;3.70;;
73650;SDS011;61944;52.538;6.108;2023-03-13T08:18:45;9.15;;;3.22;;
73650;SDS011;61944;52.538;6.108;2023-03-13T08:21:13;8.65;;;3.30;;
73650;SDS011;61944;52.538;6.108;2023-03-13T08:23:45;6.95;;;3.13;;
73650;SDS011;61944;52.538;6.108;2023-03-13T08:26:11;7.10;;;3.80;;
73650;SDS011;61944;52.538;6.108;2023-03-13T08:28:41;6.60;;;3.60;;
73650;SDS011;61944;52.538;6.108;2023-03-13T08:31:08;6.45;;;3.28;;
73650;SDS011;61944;52.538;6.108;2023-03-13T08:33:44;8.60;;;3.60;;
73650;SDS011;61944;52.538;6.108;2023-03-13T08:36:18;6.47;;;3.58;;
73650;SDS011;61944;52.538;6.108;2023-03-13T08:38:47;7.13;;;3.40;;
73650;SDS011;61944;52.538;6.108;2023-03-13T08:41:14;6.88;;;3.22;;
73650;SDS011;61944;52.538;6.108;2023-03-13T08:43:47;6.15;;;3.13;;
73650;SDS011;61944;52.538;6.108;2023-03-13T08:46:13;8.57;;;3.65;;
73650;SDS011;61944;52.538;6.108;2023-03-13T08:48:40;11.88;;;3.22;;
73650;SDS011;61944;52.538;6.108;2023-03-13T08:51:07;10.55;;;3.97;;
73650;SDS011;61944;52.538;6.108;2023-03-13T08:53:35;10.77;;;3.63;;
73650;SDS011;61944;52.538;6.108;2023-03-13T08:56:01;9.38;;;3.13;;
73650;SDS011;61944;52.538;6.108;2023-03-13T08:58:28;12.35;;;3.28;;
73650;SDS011;61944;52.538;6.108;2023-03-13T09:00:58;7.50;;;3.38;;
73650;SDS011;61944;52.538;6.108;2023-03-13T09:03:27;10.77;;;3.60;;
73650;SDS011;61944;52.538;6.108;2023-03-13T09:05:58;4.68;;;2.70;;
73650;SDS011;61944;52.538;6.108;2023-03-13T09:08:24;6.70;;;2.75;;
73650;SDS011;61944;52.538;6.108;2023-03-13T09:10:59;7.10;;;2.58;;
73650;SDS011;61944;52.538;6.108;2023-03-13T09:13:27;6.70;;;2.50;;
73650;SDS011;61944;52.538;6.108;2023-03-13T09:15:57;8.23;;;3.33;;
73650;SDS011;61944;52.538;6.108;2023-03-13T09:18:23;8.07;;;2.50;;
73650;SDS011;61944;52.538;6.108;2023-03-13T09:20:49;6.63;;;2.03;;
73650;SDS011;61944;52.538;6.108;2023-03-13T09:23:16;8.40;;;2.80;;
73650;SDS011;61944;52.538;6.108;2023-03-13T09:25:42;9.57;;;2.65;;
73650;SDS011;61944;52.538;6.108;2023-03-13T09:28:08;6.85;;;2.30;;
73650;SDS011;61944;52.538;6.108;2023-03-13T09:30:36;10.60;;;2.53;;
73650;SDS011;61944;52.538;6.108;2023-03-13T09:33:02;4.60;;;2.00;;
73650;SDS011;61944;52.538;6.108;2023-03-13T09:35:28;6.75;;;2.50;;
73650;SDS011;61944;52.538;6.108;2023-03-13T09:37:53;5.65;;;2.60;;
73650;SDS011;61944;52.538;6.108;2023-03-13T09:40:20;7.95;;;2.38;;
73650;SDS011;61944;52.538;6.108;2023-03-13T09:42:54;6.43;;;3.00;;
73650;SDS011;61944;52.538;6.108;2023-03-13T09:45:29;12.65;;;3.03;;
73650;SDS011;61944;52.538;6.108;2023-03-13T09:48:04;5.25;;;2.63;;
73650;SDS011;61944;52.538;6.108;2023-03-13T09:50:34;4.97;;;2.08;;
73650;SDS011;61944;52.538;6.108;2023-03-13T09:53:12;8.02;;;2.67;;
73650;SDS011;61944;52.538;6.108;2023-03-13T09:55:43;9.30;;;2.42;;
73650;SDS011;61944;52.538;6.108;2023-03-13T09:58:14;6.45;;;2.47;;
73650;SDS011;61944;52.538;6.108;2023-03-13T10:00:47;13.82;;;4.28;;
73650;SDS011;61944;52.538;6.108;2023-03-13T10:03:41;10.98;;;3.50;;
73650;SDS011;61944;52.538;6.108;2023-03-13T10:06:13;10.40;;;3.13;;
73650;SDS011;61944;52.538;6.108;2023-03-13T10:08:43;11.00;;;2.97;;
73650;SDS011;61944;52.538;6.108;2023-03-13T10:14:15;8.73;;;2.60;;
73650;SDS011;61944;52.538;6.108;2023-03-13T10:17:34;7.97;;;2.33;;
73650;SDS011;61944;52.538;6.108;2023-03-13T10:19:46;6.70;;;2.63;;
73650;SDS011;61944;52.538;6.108;2023-03-13T10:22:21;8.02;;;3.08;;
73650;SDS011;61944;52.538;6.108;2023-03-13T10:27:28;7.80;;;2.92;;
73650;SDS011;61944;52.538;6.108;2023-03-13T10:29:54;5.63;;;2.90;;
73650;SDS011;61944;52.538;6.108;2023-03-13T10:32:19;10.23;;;2.65;;
73650;SDS011;61944;52.538;6.108;2023-03-13T10:34:47;8.50;;;3.08;;
73650;SDS011;61944;52.538;6.108;2023-03-13T10:37:18;7.90;;;3.75;;
73650;SDS011;61944;52.538;6.108;2023-03-13T10:39:46;8.63;;;2.55;;
73650;SDS011;61944;52.538;6.108;2023-03-13T10:42:22;12.55;;;2.55;;
73650;SDS011;61944;52.538;6.108;2023-03-13T10:44:57;8.77;;;2.47;;
73650;SDS011;61944;52.538;6.108;2023-03-13T10:47:23;7.45;;;3.55;;
73650;SDS011;61944;52.538;6.108;2023-03-13T10:49:49;8.45;;;2.03;;
73650;SDS011;61944;52.538;6.108;2023-03-13T10:52:33;6.53;;;1.80;;
73650;SDS011;61944;52.538;6.108;2023-03-13T10:55:06;6.95;;;1.83;;
73650;SDS011;61944;52.538;6.108;2023-03-13T10:57:34;7.18;;;1.90;;
73650;SDS011;61944;52.538;6.108;2023-03-13T11:05:56;4.90;;;1.50;;
73650;SDS011;61944;52.538;6.108;2023-03-13T11:08:24;5.78;;;1.88;;
73650;SDS011;61944;52.538;6.108;2023-03-13T11:10:53;8.32;;;1.70;;
73650;SDS011;61944;52.538;6.108;2023-03-13T11:13:34;10.45;;;2.33;;
73650;SDS011;61944;52.538;6.108;2023-03-13T11:21:09;4.63;;;1.95;;
73650;SDS011;61944;52.538;6.108;2023-03-13T11:23:49;4.75;;;2.00;;
73650;SDS011;61944;52.538;6.108;2023-03-13T11:31:45;6.82;;;2.13;;
73650;SDS011;61944;52.538;6.108;2023-03-13T11:53:31;13.93;;;3.10;;
73650;SDS011;61944;52.538;6.108;2023-03-13T11:56:04;7.43;;;2.10;;
73650;SDS011;61944;52.538;6.108;2023-03-13T11:58:48;5.57;;;2.42;;
73650;SDS011;61944;52.538;6.108;2023-03-13T12:01:36;10.30;;;2.15;;
73650;SDS011;61944;52.538;6.108;2023-03-13T12:07:29;8.20;;;3.03;;
73650;SDS011;61944;52.538;6.108;2023-03-13T12:09:58;7.00;;;1.70;;
73650;SDS011;61944;52.538;6.108;2023-03-13T12:14:56;5.30;;;1.85;;
73650;SDS011;61944;52.538;6.108;2023-03-13T12:20:03;7.90;;;3.03;;
73650;SDS011;61944;52.538;6.108;2023-03-13T12:25:22;12.50;;;2.38;;
73650;SDS011;61944;52.538;6.108;2023-03-13T12:27:51;8.50;;;2.75;;
73650;SDS011;61944;52.538;6.108;2023-03-13T12:33:15;8.00;;;2.55;;
73650;SDS011;61944;52.538;6.108;2023-03-13T12:35:44;5.80;;;1.52;;
73650;SDS011;61944;52.538;6.108;2023-03-13T12:38:19;3.17;;;1.20;;
73650;SDS011;61944;52.538;6.108;2023-03-13T12:41:00;10.60;;;1.80;;
73650;SDS011;61944;52.538;6.108;2023-03-13T12:43:35;7.53;;;1.77;;
73650;SDS011;61944;52.538;6.108;2023-03-13T12:51:44;12.65;;;2.03;;
73650;SDS011;61944;52.538;6.108;2023-03-13T12:57:41;9.38;;;2.05;;
73650;SDS011;61944;52.538;6.108;2023-03-13T13:00:28;8.82;;;2.08;;
73650;SDS011;61944;52.538;6.108;2023-03-13T13:03:08;8.13;;;2.50;;
73650;SDS011;61944;52.538;6.108;2023-03-13T13:06:09;6.32;;;2.08;;
73650;SDS011;61944;52.538;6.108;2023-03-13T13:08:38;7.38;;;2.78;;
73650;SDS011;61944;52.538;6.108;2023-03-13T13:19:42;9.02;;;2.15;;
73650;SDS011;61944;52.538;6.108;2023-03-13T13:29:59;8.95;;;2.42;;
73650;SDS011;61944;52.538;6.108;2023-03-13T13:32:32;8.98;;;1.70;;
73650;SDS011;61944;52.538;6.108;2023-03-13T13:37:36;9.25;;;2.13;;
73650;SDS011;61944;52.538;6.108;2023-03-13T13:45:36;8.90;;;2.35;;
73650;SDS011;61944;52.538;6.108;2023-03-13T13:53:42;9.73;;;2.90;;
73650;SDS011;61944;52.538;6.108;2023-03-13T14:01:44;10.18;;;2.20;;
73650;SDS011;61944;52.538;6.108;2023-03-13T14:04:12;9.27;;;3.35;;
73650;SDS011;61944;52.538;6.108;2023-03-13T14:06:41;11.80;;;2.38;;
73650;SDS011;61944;52.538;6.108;2023-03-13T14:17:53;10.52;;;3.20;;
73650;SDS011;61944;52.538;6.108;2023-03-13T14:20:28;11.10;;;2.25;;
73650;SDS011;61944;52.538;6.108;2023-03-13T14:22:56;11.45;;;4.13;;
73650;SDS011;61944;52.538;6.108;2023-03-13T14:28:24;13.13;;;2.78;;
73650;SDS011;61944;52.538;6.108;2023-03-13T14:30:52;17.58;;;3.63;;
73650;SDS011;61944;52.538;6.108;2023-03-13T14:33:20;14.88;;;3.25;;
73650;SDS011;61944;52.538;6.108;2023-03-13T14:35:49;23.55;;;3.75;;
73650;SDS011;61944;52.538;6.108;2023-03-13T14:38:22;18.13;;;3.90;;
73650;SDS011;61944;52.538;6.108;2023-03-13T14:40:50;9.85;;;2.67;;
73650;SDS011;61944;52.538;6.108;2023-03-13T14:43:21;16.63;;;4.72;;
73650;SDS011;61944;52.538;6.108;2023-03-13T14:46:11;12.85;;;3.20;;
73650;SDS011;61944;52.538;6.108;2023-03-13T14:48:39;12.35;;;2.80;;
73650;SDS011;61944;52.538;6.108;2023-03-13T14:51:09;15.88;;;4.00;;
73650;SDS011;61944;52.538;6.108;2023-03-13T14:53:54;16.02;;;3.70;;
73650;SDS011;61944;52.538;6.108;2023-03-13T14:56:28;14.07;;;4.25;;
73650;SDS011;61944;52.538;6.108;2023-03-13T14:59:05;21.30;;;3.67;;
73650;SDS011;61944;52.538;6.108;2023-03-13T15:01:39;19.95;;;4.28;;
73650;SDS011;61944;52.538;6.108;2023-03-13T15:04:05;25.13;;;4.00;;
73650;SDS011;61944;52.538;6.108;2023-03-13T15:06:30;12.55;;;2.85;;
73650;SDS011;61944;52.538;6.108;2023-03-13T15:11:33;13.77;;;3.40;;
73650;SDS011;61944;52.538;6.108;2023-03-13T15:14:01;20.30;;;4.60;;
73650;SDS011;61944;52.538;6.108;2023-03-13T15:16:27;14.90;;;3.40;;
73650;SDS011;61944;52.538;6.108;2023-03-13T15:18:53;24.88;;;4.55;;
73650;SDS011;61944;52.538;6.108;2023-03-13T15:21:26;24.25;;;4.20;;
73650;SDS011;61944;52.538;6.108;2023-03-13T15:23:55;19.40;;;5.32;;
73650;SDS011;61944;52.538;6.108;2023-03-13T15:26:36;17.85;;;3.92;;
73650;SDS011;61944;52.538;6.108;2023-03-13T15:29:10;10.68;;;3.28;;
73650;SDS011;61944;52.538;6.108;2023-03-13T15:31:36;19.15;;;3.78;;
73650;SDS011;61944;52.538;6.108;2023-03-13T15:34:02;14.85;;;4.07;;
73650;SDS011;61944;52.538;6.108;2023-03-13T15:36:28;13.93;;;3.75;;
73650;SDS011;61944;52.538;6.108;2023-03-13T15:38:55;25.67;;;4.10;;
73650;SDS011;61944;52.538;6.108;2023-03-13T15:41:21;24.30;;;4.18;;
73650;SDS011;61944;52.538;6.108;2023-03-13T15:43:47;22.38;;;4.15;;
73650;SDS011;61944;52.538;6.108;2023-03-13T15:46:17;20.67;;;4.75;;
73650;SDS011;61944;52.538;6.108;2023-03-13T15:48:43;25.13;;;4.30;;
73650;SDS011;61944;52.538;6.108;2023-03-13T15:51:09;26.52;;;5.03;;
73650;SDS011;61944;52.538;6.108;2023-03-13T15:53:37;18.38;;;3.45;;
73650;SDS011;61944;52.538;6.108;2023-03-13T15:56:08;18.15;;;4.25;;
73650;SDS011;61944;52.538;6.108;2023-03-13T15:58:38;24.92;;;4.35;;
73650;SDS011;61944;52.538;6.108;2023-03-13T16:01:03;19.52;;;3.97;;
73650;SDS011;61944;52.538;6.108;2023-03-13T16:03:29;23.95;;;4.60;;
73650;SDS011;61944;52.538;6.108;2023-03-13T16:05:57;14.88;;;4.07;;
73650;SDS011;61944;52.538;6.108;2023-03-13T16:08:24;18.58;;;4.40;;
73650;SDS011;61944;52.538;6.108;2023-03-13T16:10:51;14.80;;;3.47;;
73650;SDS011;61944;52.538;6.108;2023-03-13T16:13:17;29.10;;;5.30;;
73650;SDS011;61944;52.538;6.108;2023-03-13T16:15:43;19.35;;;3.92;;
73650;SDS011;61944;52.538;6.108;2023-03-13T16:18:15;22.10;;;5.13;;
73650;SDS011;61944;52.538;6.108;2023-03-13T16:20:47;23.63;;;5.70;;
73650;SDS011;61944;52.538;6.108;2023-03-13T16:23:13;22.30;;;5.00;;
73650;SDS011;61944;52.538;6.108;2023-03-13T16:25:38;29.92;;;4.60;;
73650;SDS011;61944;52.538;6.108;2023-03-13T16:28:04;15.27;;;4.72;;
73650;SDS011;61944;52.538;6.108;2023-03-13T16:30:32;16.13;;;4.75;;
73650;SDS011;61944;52.538;6.108;2023-03-13T16:32:58;24.10;;;4.53;;
73650;SDS011;61944;52.538;6.108;2023-03-13T16:35:24;19.52;;;4.20;;
73650;SDS011;61944;52.538;6.108;2023-03-13T16:37:54;27.40;;;4.80;;
73650;SDS011;61944;52.538;6.108;2023-03-13T16:40:22;19.65;;;3.38;;
73650;SDS011;61944;52.538;6.108;2023-03-13T16:42:50;24.80;;;7.00;;
73650;SDS011;61944;52.538;6.108;2023-03-13T16:45:15;20.05;;;4.72;;
73650;SDS011;61944;52.538;6.108;2023-03-13T16:47:41;17.17;;;3.92;;
73650;SDS011;61944;52.538;6.108;2023-03-13T16:50:18;17.20;;;4.15;;
73650;SDS011;61944;52.538;6.108;2023-03-13T16:52:47;15.52;;;3.47;;